Time;durP1;ratioP1;P1;durP2;ratioP2;P2;SDS_P1;SDS_P2;PMS_P1;PMS_P2;Temp;Humidity;BMP_temperature;BMP_pressure;BME280_temperature;BME280_humidity;BME280_pressure;Samples;Min_cycle;Max_cycle;Signal;HPM_P1;HPM_P2
2023/04/28 00:01:18;;;;;;;4.23;2.40;;;4.60;99.90;4.40;100897.00;;;;4928860;28;91227;-72
2023/04/28 00:03:44;;;;;;;2.13;1.93;;;5.30;99.90;4.40;100878.00;;;;4934888;28;116824;-72
2023/04/28 00:06:10;;;;;;;4.27;2.23;;;4.60;99.90;4.40;100878.00;;;;4943931;28;110116;-72
2023/04/28 00:08:36;;;;;;;3.30;2.83;;;4.60;99.90;4.40;100882.00;;;;4937960;28;87868;-72
2023/04/28 00:11:02;;;;;;;4.03;2.37;;;4.60;99.90;4.40;100874.00;;;;4933150;28;117106;-72
2023/04/28 00:13:27;;;;;;;2.30;2.03;;;4.80;99.90;4.50;100867.00;;;;4924873;28;107332;-72
2023/04/28 00:15:54;;;;;;;3.13;1.67;;;4.60;99.90;4.40;100882.00;;;;4932439;28;110503;-72
2023/04/28 00:18:20;;;;;;;6.63;2.30;;;4.60;99.90;4.40;100871.00;;;;4930293;28;87767;-72
2023/04/28 00:20:46;;;;;;;3.27;1.90;;;4.60;99.90;4.40;100879.00;;;;4933441;28;89369;-72
2023/04/28 00:23:12;;;;;;;3.40;2.23;;;4.70;99.90;4.40;100872.00;;;;4934270;28;100479;-72
2023/04/28 00:25:38;;;;;;;5.07;2.20;;;4.60;99.90;4.40;100875.00;;;;4936293;28;112289;-72
2023/04/28 00:28:09;;;;;;;2.90;2.53;;;4.60;99.90;4.40;100867.00;;;;4934072;28;108992;-73
2023/04/28 00:30:35;;;;;;;5.53;2.23;;;4.60;99.90;4.40;100870.00;;;;4936418;28;117966;-72
2023/04/28 00:33:00;;;;;;;3.80;2.53;;;4.60;99.90;4.40;100861.00;;;;4934686;28;116180;-72
2023/04/28 00:35:26;;;;;;;2.80;2.07;;;4.60;99.90;4.50;100863.00;;;;4933200;28;112402;-73
2023/04/28 00:37:52;;;;;;;1.80;1.70;;;4.60;99.90;4.50;100850.00;;;;4933157;28;87004;-71
2023/04/28 00:40:17;;;;;;;2.53;2.17;;;5.20;99.90;4.50;100854.00;;;;4937002;28;117228;-74
2023/04/28 00:42:46;;;;;;;3.07;2.30;;;4.70;99.90;4.60;100850.00;;;;4931677;28;114241;-71
2023/04/28 00:45:12;;;;;;;3.43;2.07;;;4.70;99.90;4.60;100850.00;;;;4932567;28;88934;-72
2023/04/28 00:47:37;;;;;;;4.90;3.20;;;4.80;99.90;4.60;100846.00;;;;4931768;28;108872;-71
2023/04/28 00:50:05;;;;;;;2.27;1.97;;;5.40;99.90;4.60;100836.00;;;;4930250;28;94841;-71
2023/04/28 00:52:31;;;;;;;3.07;2.67;;;4.80;99.90;4.60;100835.00;;;;4930435;28;88351;-72
2023/04/28 00:54:57;;;;;;;2.20;2.00;;;4.80;99.90;4.60;100834.00;;;;4928323;28;100672;-72
2023/04/28 00:57:23;;;;;;;2.20;2.00;;;4.80;99.90;4.70;100828.00;;;;4932497;28;87892;-72
2023/04/28 00:59:49;;;;;;;2.40;2.20;;;4.80;99.90;4.60;100833.00;;;;4932719;28;110964;-72
2023/04/28 01:02:18;;;;;;;2.20;2.00;;;4.80;99.90;4.60;100828.00;;;;4931854;28;88166;-72
2023/04/28 01:04:44;;;;;;;3.73;2.20;;;5.30;99.90;4.60;100826.00;;;;4936155;28;87939;-73
2023/04/28 01:07:10;;;;;;;3.23;1.80;;;4.80;99.90;4.60;100816.00;;;;4934752;28;87830;-72
2023/04/28 01:09:36;;;;;;;2.03;1.83;;;4.80;99.90;4.60;100811.00;;;;4931413;28;89010;-72
2023/04/28 01:12:02;;;;;;;2.37;2.17;;;5.10;99.90;4.60;100818.00;;;;4934565;28;117558;-72
2023/04/28 01:14:28;;;;;;;2.00;1.80;;;4.80;99.90;4.60;100814.00;;;;4932622;28;102002;-72
2023/04/28 01:16:54;;;;;;;9.40;2.20;;;4.70;99.90;4.60;100810.00;;;;4934059;28;107443;-72
2023/04/28 01:19:21;;;;;;;4.17;2.27;;;4.70;99.90;4.60;100800.00;;;;4931909;28;88046;-72
2023/04/28 01:21:51;;;;;;;3.10;2.40;;;5.00;99.90;4.60;100810.00;;;;4937208;28;87607;-72
2023/04/28 01:24:17;;;;;;;3.53;2.60;;;4.80;99.90;4.60;100807.00;;;;4933108;28;108097;-72
2023/04/28 01:26:43;;;;;;;4.30;2.47;;;4.80;99.90;4.60;100798.00;;;;4936189;28;109474;-72
2023/04/28 01:29:09;;;;;;;4.00;2.80;;;4.90;99.90;4.70;100802.00;;;;4935082;28;87540;-72
2023/04/28 01:31:34;;;;;;;3.10;1.77;;;4.90;99.90;4.70;100805.00;;;;4936427;28;117156;-72
2023/04/28 01:34:00;;;;;;;5.63;2.73;;;4.80;99.90;4.70;100810.00;;;;4927049;28;111012;-72
2023/04/28 01:36:27;;;;;;;2.83;2.53;;;4.80;99.90;4.70;100822.00;;;;4931668;28;108857;-72
2023/04/28 01:38:53;;;;;;;1.70;1.60;;;4.90;99.90;4.70;100798.00;;;;4932170;28;88198;-72
2023/04/28 01:41:19;;;;;;;2.90;2.57;;;4.90;99.90;4.70;100805.00;;;;4931612;28;87764;-72
2023/04/28 01:43:45;;;;;;;2.70;2.03;;;4.90;99.90;4.70;100804.00;;;;4932643;28;87732;-72
2023/04/28 01:46:10;;;;;;;2.33;2.03;;;4.90;99.90;4.70;100795.00;;;;4932541;28;102236;-72
2023/04/28 01:48:36;;;;;;;2.60;2.13;;;4.90;99.90;4.70;100794.00;;;;4917264;28;90207;-72
2023/04/28 01:51:02;;;;;;;3.00;1.83;;;4.90;99.90;4.70;100797.00;;;;4930856;28;116389;-72
2023/04/28 01:53:27;;;;;;;2.67;2.30;;;4.90;99.90;4.70;100797.00;;;;4930855;28;97701;-72
2023/04/28 01:55:54;;;;;;;5.50;2.83;;;4.90;99.90;4.70;100788.00;;;;4929846;28;107973;-71
2023/04/28 01:58:19;;;;;;;2.57;2.27;;;5.30;99.90;4.70;100786.00;;;;4931734;28;89842;-71
2023/04/28 02:00:46;;;;;;;3.57;2.37;;;4.90;99.90;4.70;100779.00;;;;4932617;28;88586;-73
2023/04/28 02:03:12;;;;;;;3.23;2.40;;;4.90;99.90;4.70;100783.00;;;;4929095;28;87860;-71
2023/04/28 02:05:37;;;;;;;1.80;1.60;;;4.90;99.90;4.70;100781.00;;;;4936426;28;87991;-71
2023/04/28 02:08:03;;;;;;;4.00;2.87;;;4.90;99.90;4.60;100781.00;;;;4930085;28;89058;-71
2023/04/28 02:10:29;;;;;;;5.10;2.67;;;4.80;99.90;4.60;100771.00;;;;4929386;28;88094;-71
2023/04/28 02:12:55;;;;;;;3.97;2.93;;;5.10;99.90;4.60;100779.00;;;;4932317;28;110478;-71
2023/04/28 02:15:21;;;;;;;2.20;2.00;;;4.80;99.90;4.60;100776.00;;;;4934530;28;87010;-72
2023/04/28 02:17:46;;;;;;;4.80;2.40;;;4.80;99.90;4.60;100777.00;;;;4935136;28;90535;-71
2023/04/28 02:20:13;;;;;;;2.93;1.80;;;4.80;99.90;4.60;100768.00;;;;4932762;28;117470;-71
2023/04/28 02:22:40;;;;;;;5.33;2.70;;;4.80;99.90;4.50;100767.00;;;;4936260;28;89168;-72
2023/04/28 02:25:07;;;;;;;3.57;2.40;;;4.70;99.90;4.50;100758.00;;;;4931999;28;88013;-72
2023/04/28 02:27:35;;;;;;;4.57;2.80;;;4.70;99.90;4.50;100768.00;;;;4933382;28;108639;-72
2023/04/28 02:30:03;;;;;;;7.87;2.33;;;4.70;99.90;4.50;100765.00;;;;4932030;28;88301;-72
2023/04/28 02:32:28;;;;;;;4.03;2.83;;;4.70;99.90;4.40;100760.00;;;;4933494;28;98724;-72
2023/04/28 02:34:55;;;;;;;3.97;2.30;;;5.30;99.90;4.40;100761.00;;;;4931927;28;108595;-72
2023/04/28 02:37:21;;;;;;;2.37;2.17;;;4.60;99.90;4.40;100765.00;;;;4932915;28;88979;-72
2023/04/28 02:39:46;;;;;;;4.20;2.13;;;4.60;99.90;4.30;100756.00;;;;4933027;28;88117;-72
2023/04/28 02:42:12;;;;;;;2.87;2.20;;;4.50;99.90;4.30;100755.00;;;;4933632;28;110663;-72
2023/04/28 02:44:38;;;;;;;4.93;3.60;;;4.50;99.90;4.30;100744.00;;;;4933181;28;108480;-72
2023/04/28 02:47:03;;;;;;;3.43;2.83;;;4.50;99.90;4.30;100747.00;;;;4933045;28;93345;-72
2023/04/28 02:49:29;;;;;;;4.37;3.00;;;4.60;99.90;4.40;100748.00;;;;4936014;28;89489;-72
2023/04/28 02:51:55;;;;;;;3.10;2.47;;;4.60;99.90;4.40;100742.00;;;;4937205;28;88083;-72
2023/04/28 02:54:26;;;;;;;3.43;2.53;;;4.60;99.90;4.40;100748.00;;;;4934194;28;87724;-72
2023/04/28 02:56:53;;;;;;;4.37;2.87;;;4.60;99.90;4.40;100736.00;;;;4935897;28;88751;-72
2023/04/28 02:59:20;;;;;;;4.73;2.80;;;4.60;99.90;4.40;100746.00;;;;4934447;28;93959;-72
2023/04/28 03:01:46;;;;;;;3.10;2.60;;;4.60;99.90;4.40;100741.00;;;;4936338;28;87674;-73
2023/04/28 03:04:12;;;;;;;2.97;2.73;;;4.60;99.90;4.50;100737.00;;;;4932562;28;87448;-72
2023/04/28 03:06:38;;;;;;;3.50;3.00;;;4.60;99.90;4.50;100735.00;;;;4931590;28;89130;-72
2023/04/28 03:09:04;;;;;;;4.50;3.23;;;5.00;99.90;4.50;100729.00;;;;4933731;28;88000;-72
2023/04/28 03:11:30;;;;;;;3.73;3.00;;;4.70;99.90;4.60;100724.00;;;;4930554;28;110211;-73
2023/04/28 03:13:55;;;;;;;3.93;2.87;;;4.70;99.90;4.60;100723.00;;;;4935369;28;87868;-72
2023/04/28 03:16:21;;;;;;;5.50;3.63;;;4.90;99.90;4.60;100717.00;;;;4935892;28;117895;-72
2023/04/28 03:18:46;;;;;;;4.77;3.07;;;4.70;99.90;4.60;100723.00;;;;4934417;28;117429;-73
2023/04/28 03:21:12;;;;;;;3.87;3.33;;;4.80;99.90;4.60;100728.00;;;;4938448;28;87768;-72
2023/04/28 03:23:38;;;;;;;2.67;2.47;;;4.80;99.90;4.60;100720.00;;;;4932302;28;102872;-72
2023/04/28 03:26:04;;;;;;;3.60;3.20;;;4.80;99.90;4.70;100715.00;;;;4934028;28;109632;-70
2023/04/28 03:28:29;;;;;;;4.53;3.30;;;4.80;99.90;4.70;100715.00;;;;4930566;28;88430;-70
2023/04/28 03:30:55;;;;;;;6.20;2.87;;;4.90;99.90;4.80;100699.00;;;;4931656;28;90061;-70
2023/04/28 03:33:21;;;;;;;3.73;3.00;;;4.90;99.90;4.80;100696.00;;;;4933240;28;87807;-70
2023/04/28 03:35:46;;;;;;;7.40;4.43;;;5.60;99.90;4.90;100695.00;;;;4933044;28;90070;-70
2023/04/28 03:38:12;;;;;;;4.17;3.20;;;5.00;99.90;4.90;100698.00;;;;4932363;28;118817;-70
2023/04/28 03:40:38;;;;;;;3.90;3.53;;;5.00;99.90;4.90;100705.00;;;;4932437;28;108502;-70
2023/04/28 03:43:03;;;;;;;5.57;3.40;;;5.10;99.90;5.00;100702.00;;;;4932184;28;109868;-71
2023/04/28 03:45:29;;;;;;;4.10;3.67;;;5.10;99.90;5.00;100702.00;;;;4932204;28;93888;-72
2023/04/28 03:47:55;;;;;;;5.40;3.67;;;5.10;99.90;5.10;100696.00;;;;4931418;28;88810;-71
2023/04/28 03:50:21;;;;;;;3.33;2.80;;;5.20;99.90;5.10;100699.00;;;;4935362;28;108473;-70
2023/04/28 03:52:46;;;;;;;4.87;3.60;;;5.20;99.90;5.10;100697.00;;;;4929797;28;107649;-71
2023/04/28 03:55:12;;;;;;;4.93;3.37;;;5.80;99.90;5.10;100697.00;;;;4931057;28;118597;-71
2023/04/28 03:57:38;;;;;;;4.47;4.00;;;5.30;99.90;5.20;100695.00;;;;4932920;28;87945;-72
2023/04/28 04:00:04;;;;;;;3.90;3.13;;;5.40;99.90;5.20;100696.00;;;;4928445;28;110376;-71
2023/04/28 04:02:30;;;;;;;4.23;3.63;;;5.30;99.90;5.30;100688.00;;;;4930728;28;98292;-71
2023/04/28 04:04:56;;;;;;;4.53;4.10;;;5.70;99.90;5.30;100687.00;;;;4928732;28;117470;-70
2023/04/28 04:07:22;;;;;;;5.27;4.77;;;5.40;99.90;5.40;100683.00;;;;4931436;28;117720;-71
2023/04/28 04:09:48;;;;;;;5.57;3.30;;;5.50;99.90;5.40;100690.00;;;;4892742;28;1104440;-70
2023/04/28 04:12:13;;;;;;;7.37;4.37;;;5.60;99.90;5.40;100686.00;;;;4935791;28;103641;-70
2023/04/28 04:14:39;;;;;;;6.50;3.90;;;5.50;99.90;5.40;100693.00;;;;4932949;28;117591;-70
2023/04/28 04:17:05;;;;;;;11.50;4.10;;;5.50;99.90;5.40;100675.00;;;;4934784;28;87788;-71
2023/04/28 04:19:30;;;;;;;4.50;4.10;;;5.50;99.90;5.50;100675.00;;;;4934830;28;103883;-71
2023/04/28 04:21:56;;;;;;;4.83;3.97;;;5.60;99.90;5.50;100672.00;;;;4932505;28;107298;-71
2023/04/28 04:24:22;;;;;;;4.67;3.17;;;5.60;99.90;5.50;100670.00;;;;4929719;28;118558;-72
2023/04/28 04:26:47;;;;;;;3.77;3.23;;;5.60;99.90;5.50;100667.00;;;;4931181;28;102561;-71
2023/04/28 04:29:13;;;;;;;6.87;4.00;;;5.70;99.90;5.60;100674.00;;;;4935461;28;110590;-70
2023/04/28 04:31:39;;;;;;;5.30;3.07;;;5.70;99.90;5.60;100667.00;;;;4935612;28;108957;-70
2023/04/28 04:34:05;;;;;;;5.87;3.67;;;5.70;99.90;5.60;100669.00;;;;4933857;28;88034;-71
2023/04/28 04:36:31;;;;;;;4.70;4.10;;;6.20;99.90;5.70;100667.00;;;;4929820;28;90227;-72
2023/04/28 04:38:57;;;;;;;6.57;3.50;;;5.80;99.90;5.70;100662.00;;;;4931460;28;88020;-72
2023/04/28 04:41:25;;;;;;;5.47;4.10;;;6.00;99.90;5.80;100654.00;;;;4930432;28;100272;-71
2023/04/28 04:43:50;;;;;;;7.20;5.30;;;5.90;99.90;5.80;100657.00;;;;4929020;28;88865;-70
2023/04/28 04:46:16;;;;;;;8.70;4.83;;;6.00;99.90;5.90;100666.00;;;;4929408;28;117330;-70
2023/04/28 04:48:42;;;;;;;6.73;5.43;;;6.40;99.90;5.90;100658.00;;;;4928691;28;110582;-70
2023/04/28 04:51:08;;;;;;;9.37;5.00;;;6.00;99.90;6.00;100661.00;;;;4929085;28;95187;-70
2023/04/28 04:53:33;;;;;;;8.00;4.20;;;6.30;99.90;6.00;100655.00;;;;4932656;28;102866;-70
2023/04/28 04:55:59;;;;;;;5.57;4.17;;;6.10;99.90;6.10;100650.00;;;;4923750;28;117517;-69
2023/04/28 04:58:25;;;;;;;8.47;4.47;;;6.50;99.90;6.10;100642.00;;;;4923049;28;104133;-71
2023/04/28 05:00:51;;;;;;;4.10;3.33;;;6.20;99.90;6.10;100650.00;;;;4929102;28;89723;-71
2023/04/28 05:03:16;;;;;;;7.17;4.27;;;6.20;99.90;6.20;100642.00;;;;4928662;28;118632;-69
2023/04/28 05:05:44;;;;;;;4.80;4.13;;;6.50;99.90;6.20;100637.00;;;;4931837;28;119134;-71
2023/04/28 05:08:10;;;;;;;5.43;3.63;;;6.70;99.90;6.30;100632.00;;;;4933371;28;87993;-72
2023/04/28 05:10:36;;;;;;;3.83;3.00;;;6.30;99.90;6.30;100632.00;;;;4933658;28;88247;-71
2023/04/28 05:13:02;;;;;;;6.07;4.30;;;6.90;99.90;6.40;100634.00;;;;4930935;28;89106;-70
2023/04/28 05:15:28;;;;;;;4.33;3.57;;;6.40;99.90;6.50;100636.00;;;;4932358;28;101601;-70
2023/04/28 05:17:55;;;;;;;8.43;3.87;;;7.10;99.90;6.60;100633.00;;;;4933203;28;88062;-70
2023/04/28 05:20:20;;;;;;;9.57;3.47;;;6.80;99.90;6.70;100634.00;;;;4934365;28;88017;-71
2023/04/28 05:22:46;;;;;;;6.73;4.10;;;6.70;99.90;6.80;100623.00;;;;4918252;28;115232;-70
2023/04/28 05:25:12;;;;;;;4.37;3.33;;;6.80;99.90;6.80;100630.00;;;;4931991;28;117048;-72
2023/04/28 05:27:39;;;;;;;3.27;2.90;;;6.90;99.90;6.90;100635.00;;;;4922786;28;113215;-70
2023/04/28 05:30:07;;;;;;;3.00;2.47;;;7.30;99.90;7.00;100632.00;;;;4936448;28;87333;-70
2023/04/28 05:32:34;;;;;;;4.23;3.43;;;7.10;99.90;7.10;100619.00;;;;4917758;28;89375;-70
2023/04/28 05:35:00;;;;;;;5.97;4.00;;;7.60;99.90;7.30;100623.00;;;;4934455;28;88739;-70
2023/04/28 05:37:26;;;;;;;6.07;4.33;;;7.30;99.90;7.40;100624.00;;;;4934627;28;88970;-70
2023/04/28 05:39:52;;;;;;;4.27;3.33;;;7.90;99.90;7.50;100618.00;;;;4929884;28;107702;-71
2023/04/28 05:42:29;;;;;;;3.87;3.47;;;7.60;99.90;7.60;100624.00;;;;4928934;28;88709;-71
2023/04/28 05:44:55;;;;;;;5.73;3.50;;;7.60;99.90;7.70;100618.00;;;;4916551;28;90487;-72
2023/04/28 05:47:21;;;;;;;4.87;2.53;;;7.70;99.90;7.80;100627.00;;;;4930723;28;88042;-69
2023/04/28 05:49:46;;;;;;;5.83;3.43;;;7.80;99.90;8.00;100617.00;;;;4935031;28;109382;-70
2023/04/28 05:52:12;;;;;;;6.57;3.63;;;7.90;99.90;8.10;100614.00;;;;4927970;28;117224;-71
2023/04/28 05:54:38;;;;;;;5.77;3.70;;;8.10;99.90;8.30;100607.00;;;;4931788;28;116711;-72
2023/04/28 05:57:04;;;;;;;5.10;3.40;;;8.20;99.90;8.30;100612.00;;;;4932742;28;109836;-70
2023/04/28 05:59:30;;;;;;;7.17;4.10;;;8.30;99.90;8.40;100614.00;;;;4930927;28;107826;-69
2023/04/28 06:01:56;;;;;;;6.47;4.10;;;8.40;99.90;8.50;100610.00;;;;4933075;28;90076;-70
2023/04/28 06:04:21;;;;;;;3.27;2.97;;;8.50;99.90;8.50;100611.00;;;;4931148;28;116333;-70
2023/04/28 06:06:47;;;;;;;6.40;3.73;;;8.50;99.90;8.60;100608.00;;;;4932805;28;111759;-70
2023/04/28 06:09:13;;;;;;;5.10;3.37;;;8.60;99.90;8.70;100610.00;;;;4931002;28;107899;-72
2023/04/28 06:11:38;;;;;;;6.07;3.87;;;8.70;99.90;8.70;100606.00;;;;4936247;28;117418;-70
2023/04/28 06:14:04;;;;;;;8.43;4.50;;;8.70;99.90;8.80;100605.00;;;;4935497;28;95763;-70
2023/04/28 06:16:30;;;;;;;4.67;3.73;;;8.80;99.90;8.90;100608.00;;;;4935864;28;88107;-71
2023/04/28 06:18:56;;;;;;;5.50;3.87;;;8.40;99.90;9.00;100595.00;;;;4932060;28;87096;-73
2023/04/28 06:21:23;;;;;;;6.03;3.77;;;9.00;99.90;9.10;100605.00;;;;4929171;28;110570;-71
2023/04/28 06:23:49;;;;;;;6.33;4.00;;;9.10;99.80;9.30;100606.00;;;;4931682;28;89271;-71
2023/04/28 06:26:15;;;;;;;3.90;3.30;;;9.20;99.40;9.50;100606.00;;;;4931063;28;100916;-71
2023/04/28 06:28:41;;;;;;;9.90;3.47;;;9.40;98.60;9.60;100609.00;;;;4933912;28;108042;-70
2023/04/28 06:31:07;;;;;;;5.70;3.50;;;9.50;97.70;9.70;100608.00;;;;4935138;28;88714;-71
2023/04/28 06:33:33;;;;;;;4.97;3.27;;;9.60;97.00;9.90;100604.00;;;;4925514;28;96214;-72
2023/04/28 06:35:59;;;;;;;5.77;4.77;;;9.80;95.80;10.00;100597.00;;;;4921982;28;110714;-70
2023/04/28 06:38:24;;;;;;;8.27;4.63;;;10.00;94.50;10.20;100599.00;;;;4932708;28;107186;-72
2023/04/28 06:40:50;;;;;;;7.70;4.00;;;10.10;94.00;10.30;100591.00;;;;4931907;28;89226;-72
2023/04/28 06:43:16;;;;;;;6.37;3.90;;;10.30;93.30;10.50;100599.00;;;;4930239;28;118875;-72
2023/04/28 06:45:41;;;;;;;5.80;3.47;;;10.40;92.20;10.70;100597.00;;;;4931196;28;87767;-69
2023/04/28 06:48:07;;;;;;;6.37;3.30;;;10.60;92.10;10.80;100589.00;;;;4931210;28;106346;-71
2023/04/28 06:50:33;;;;;;;3.17;2.87;;;10.70;90.50;10.80;100595.00;;;;4934366;28;88828;-72
2023/04/28 06:52:58;;;;;;;6.27;3.63;;;10.80;90.20;10.80;100593.00;;;;4933621;28;118975;-72
2023/04/28 06:55:25;;;;;;;3.63;3.30;;;11.00;87.80;10.80;100597.00;;;;4928392;28;111380;-72
2023/04/28 06:57:51;;;;;;;2.77;2.50;;;10.70;87.20;10.70;100583.00;;;;4927688;28;106965;-70
2023/04/28 07:00:17;;;;;;;4.03;3.03;;;10.70;86.40;10.80;100593.00;;;;4932701;28;88216;-70
2023/04/28 07:02:43;;;;;;;8.23;3.40;;;10.80;88.10;10.90;100588.00;;;;4933392;28;87956;-70
2023/04/28 07:05:09;;;;;;;3.47;2.67;;;10.80;87.80;10.90;100580.00;;;;4934197;28;112086;-73
2023/04/28 07:07:37;;;;;;;5.30;3.70;;;10.90;87.60;11.00;100577.00;;;;4930613;28;87464;-70
2023/04/28 07:10:03;;;;;;;6.10;2.43;;;10.90;85.80;11.10;100573.00;;;;4931955;28;88331;-72
2023/04/28 07:12:41;;;;;;;7.90;3.13;;;11.00;86.30;11.20;100568.00;;;;4931243;28;88900;-72
2023/04/28 07:15:07;;;;;;;5.17;3.60;;;11.10;86.10;11.40;100565.00;;;;4928491;28;108768;-71
2023/04/28 07:17:33;;;;;;;4.60;3.37;;;11.30;85.30;11.60;100558.00;;;;4930106;28;91053;-70
2023/04/28 07:19:59;;;;;;;6.23;2.83;;;11.50;85.10;11.80;100554.00;;;;4930879;28;116161;-72
2023/04/28 07:22:24;;;;;;;4.80;3.10;;;11.70;84.90;12.00;100556.00;;;;4921981;28;116590;-71
2023/04/28 07:24:51;;;;;;;4.90;3.27;;;11.90;81.70;12.20;100549.00;;;;4931085;28;109390;-72
2023/04/28 07:27:16;;;;;;;4.47;2.90;;;12.10;81.10;12.40;100550.00;;;;4931603;28;88050;-71
2023/04/28 07:29:42;;;;;;;3.73;2.80;;;12.30;81.00;12.70;100535.00;;;;4928200;28;118265;-70
2023/04/28 07:32:09;;;;;;;2.73;2.53;;;12.50;80.10;13.00;100553.00;;;;4927418;28;117456;-71
2023/04/28 07:34:36;;;;;;;4.23;3.83;;;12.90;76.90;13.20;100546.00;;;;4931292;28;87788;-70
2023/04/28 07:37:02;;;;;;;5.17;3.40;;;13.10;75.60;13.50;100555.00;;;;4933781;28;87768;-71
2023/04/28 07:39:30;;;;;;;6.40;3.00;;;13.30;75.80;13.80;100553.00;;;;4935345;28;88961;-72
2023/04/28 07:41:57;;;;;;;4.10;2.53;;;13.60;74.40;14.10;100544.00;;;;4938493;28;89279;-70
2023/04/28 07:44:23;;;;;;;2.90;2.10;;;13.90;72.30;14.50;100551.00;;;;4938781;28;87900;-70
2023/04/28 07:46:49;;;;;;;3.37;3.00;;;14.20;72.70;14.80;100550.00;;;;4935496;28;87694;-70
2023/04/28 07:49:14;;;;;;;4.13;2.73;;;14.60;70.60;15.10;100553.00;;;;4929053;28;88432;-70
2023/04/28 07:51:40;;;;;;;7.18;2.70;;;14.90;68.30;15.30;100540.00;;;;4928146;28;116631;-71
2023/04/28 07:54:06;;;;;;;7.68;2.70;;;15.10;66.60;15.50;100539.00;;;;4933953;28;111251;-70
2023/04/28 07:56:31;;;;;;;2.95;2.60;;;15.30;64.70;15.80;100531.00;;;;4934779;28;101526;-70
2023/04/28 07:58:57;;;;;;;4.32;2.42;;;15.50;62.60;15.90;100538.00;;;;4936846;28;118494;-71
2023/04/28 08:01:23;;;;;;;2.95;2.70;;;15.70;61.50;16.00;100537.00;;;;4935157;28;87775;-71
2023/04/28 08:03:48;;;;;;;4.72;3.17;;;15.80;59.80;16.00;100538.00;;;;4931614;28;93520;-72
2023/04/28 08:06:14;;;;;;;6.47;2.60;;;15.90;59.10;16.00;100537.00;;;;4936717;28;109218;-71
2023/04/28 08:08:40;;;;;;;2.58;2.17;;;15.90;58.80;16.10;100536.00;;;;4933018;28;99545;-70
2023/04/28 08:11:07;;;;;;;4.65;2.78;;;15.90;57.10;16.00;100529.00;;;;4934584;28;88147;-71
2023/04/28 08:13:33;;;;;;;3.33;2.53;;;15.90;57.80;16.10;100528.00;;;;4933767;28;87779;-70
2023/04/28 08:16:01;;;;;;;7.30;2.83;;;15.90;58.20;16.20;100528.00;;;;4915657;28;107715;-71
2023/04/28 08:18:27;;;;;;;2.65;2.40;;;16.10;58.40;16.40;100527.00;;;;4934809;28;88474;-70
2023/04/28 08:20:53;;;;;;;6.05;2.80;;;16.20;57.10;16.60;100523.00;;;;4934432;28;104997;-71
2023/04/28 08:23:20;;;;;;;7.50;2.38;;;16.40;57.40;16.70;100524.00;;;;4933073;28;110578;-70
2023/04/28 08:25:46;;;;;;;2.45;2.03;;;16.50;57.60;17.00;100520.00;;;;4932681;28;87694;-71
2023/04/28 08:28:12;;;;;;;9.30;3.00;;;16.80;56.50;17.30;100508.00;;;;4932669;28;89297;-71
2023/04/28 08:30:38;;;;;;;5.50;2.88;;;17.00;56.10;17.40;100510.00;;;;4927747;28;100748;-72
2023/04/28 08:33:04;;;;;;;3.28;2.55;;;17.20;55.10;17.60;100511.00;;;;4930232;28;87923;-72
2023/04/28 08:35:29;;;;;;;2.90;2.17;;;17.40;53.90;17.70;100513.00;;;;4935030;28;87778;-71
2023/04/28 08:37:55;;;;;;;3.83;2.13;;;17.50;54.50;17.90;100517.00;;;;4936396;28;88315;-71
2023/04/28 08:40:23;;;;;;;3.85;2.58;;;17.70;53.50;18.00;100508.00;;;;4932187;28;117945;-72
2023/04/28 08:42:49;;;;;;;7.30;2.88;;;17.70;53.90;18.30;100512.00;;;;4936379;28;87883;-72
2023/04/28 08:45:15;;;;;;;4.35;2.90;;;18.00;53.60;18.50;100509.00;;;;4933191;28;93322;-70
2023/04/28 08:47:44;;;;;;;3.38;2.30;;;18.20;54.60;18.80;100504.00;;;;4932131;28;88693;-73
2023/04/28 08:50:12;;;;;;;4.10;2.67;;;18.50;52.70;19.00;100503.00;;;;4931877;28;88001;-72
2023/04/28 08:52:39;;;;;;;4.30;3.05;;;18.70;52.50;19.20;100501.00;;;;4934208;28;88938;-72
2023/04/28 08:55:08;;;;;;;4.88;3.05;;;18.90;52.10;19.30;100502.00;;;;4934317;28;87962;-75
2023/04/28 08:57:57;;;;;;;4.38;2.28;;;19.00;51.30;19.50;100490.00;;;;4935363;28;88084;-72
2023/04/28 09:00:23;;;;;;;2.83;2.33;;;19.20;51.20;19.80;100496.00;;;;4929608;28;117103;-72
2023/04/28 09:02:49;;;;;;;3.05;2.47;;;19.40;50.20;19.70;100485.00;;;;4934924;28;88284;-71
2023/04/28 09:05:14;;;;;;;3.53;2.67;;;19.40;49.70;19.70;100484.00;;;;4935083;28;107847;-73
2023/04/28 09:07:44;;;;;;;3.60;3.28;;;19.50;50.50;19.90;100476.00;;;;4929425;28;88942;-79
2023/04/28 09:10:23;;;;;;;5.32;2.70;;;19.60;50.40;20.20;100484.00;;;;4932167;28;104080;-75
2023/04/28 09:12:54;;;;;;;2.92;2.08;;;19.80;49.80;20.40;100491.00;;;;4932297;28;87808;-79
2023/04/28 09:15:28;;;;;;;3.28;2.05;;;20.00;49.00;20.30;100481.00;;;;4935103;28;87742;-76
2023/04/28 09:17:54;;;;;;;5.13;2.47;;;20.10;48.30;20.40;100478.00;;;;4931683;28;89495;-78
2023/04/28 09:20:25;;;;;;;2.65;2.22;;;20.10;48.20;20.60;100484.00;;;;4931924;28;90990;-73
2023/04/28 09:22:53;;;;;;;3.47;2.33;;;20.30;48.80;20.90;100472.00;;;;4934210;28;87891;-73
2023/04/28 09:25:28;;;;;;;3.45;2.85;;;20.50;49.00;21.20;100483.00;;;;4935256;28;88368;-76
2023/04/28 09:27:53;;;;;;;2.53;1.88;;;20.80;47.30;21.30;100478.00;;;;4927288;28;88251;-76
2023/04/28 09:30:38;;;;;;;3.33;2.22;;;20.90;46.90;21.30;100477.00;;;;4930242;28;117644;-74
2023/04/28 09:33:05;;;;;;;3.42;2.58;;;21.00;46.20;21.40;100476.00;;;;4915738;28;87958;-75
2023/04/28 09:35:44;;;;;;;5.65;2.95;;;21.10;46.80;21.50;100475.00;;;;4934601;28;87356;-75
2023/04/28 09:38:09;;;;;;;10.70;2.83;;;21.50;46.30;21.40;100470.00;;;;4917498;28;90405;-73
2023/04/28 09:40:57;;;;;;;3.42;2.83;;;21.10;45.60;21.20;100470.00;;;;4917038;28;89418;-75
2023/04/28 09:43:29;;;;;;;2.50;2.30;;;21.00;46.20;21.30;100459.00;;;;4931062;28;88636;-78
2023/04/28 09:45:58;;;;;;;2.88;1.88;;;21.00;47.10;21.60;100457.00;;;;4937909;28;87816;-79
2023/04/28 09:48:32;;;;;;;3.35;2.17;;;21.10;47.40;21.90;100457.00;;;;4938078;28;89412;-80
2023/04/28 09:51:04;;;;;;;2.92;2.63;;;21.00;47.30;22.30;100455.00;;;;4945032;28;89408;-74
2023/04/28 09:53:32;;;;;;;2.97;1.75;;;21.80;46.30;22.50;100462.00;;;;4936865;28;87814;-76
2023/04/28 09:56:00;;;;;;;13.30;1.88;;;22.10;45.70;22.30;100460.00;;;;4935589;28;87927;-78
2023/04/28 09:58:28;;;;;;;3.03;2.15;;;22.00;43.30;22.00;100457.00;;;;4934564;28;88235;-75
2023/04/28 10:00:59;;;;;;;1.83;1.20;;;21.80;43.50;21.80;100456.00;;;;4935602;28;88866;-75
2023/04/28 10:03:27;;;;;;;1.90;1.55;;;21.60;43.60;21.50;100457.00;;;;4927617;28;88102;-74
2023/04/28 10:05:53;;;;;;;3.53;2.28;;;21.40;43.60;21.10;100442.00;;;;4933172;28;88078;-77
2023/04/28 10:08:24;;;;;;;2.20;1.50;;;21.10;42.90;20.90;100446.00;;;;4933793;28;89123;-74
2023/04/28 10:10:53;;;;;;;1.58;1.23;;;20.80;43.10;20.50;100441.00;;;;4915587;28;93516;-78
2023/04/28 10:13:20;;;;;;;4.97;1.95;;;20.40;42.80;20.30;100445.00;;;;4933924;28;87785;-74
2023/04/28 10:15:46;;;;;;;4.82;1.63;;;20.20;43.70;20.20;100445.00;;;;4940715;28;88096;-79
2023/04/28 10:18:17;;;;;;;3.85;1.98;;;19.90;44.10;20.10;100445.00;;;;4931231;28;88347;-74
2023/04/28 10:20:59;;;;;;;2.08;1.73;;;19.90;45.10;20.10;100441.00;;;;4936379;28;88317;-77
2023/04/28 10:23:58;;;;;;;1.98;1.63;;;19.90;44.80;20.10;100443.00;;;;4930927;28;101032;-75
2023/04/28 10:27:04;;;;;;;1.80;1.38;;;19.90;44.50;20.00;100446.00;;;;4929491;28;87263;-73
2023/04/28 10:29:33;;;;;;;1.70;1.23;;;19.80;44.40;20.00;100445.00;;;;4928520;28;89747;-76
2023/04/28 10:32:20;;;;;;;2.63;1.88;;;19.80;45.00;19.80;100432.00;;;;4935256;28;88406;-74
2023/04/28 10:34:47;;;;;;;2.58;1.77;;;19.70;44.70;19.80;100427.00;;;;4928002;28;88834;-78
2023/04/28 10:37:18;;;;;;;2.17;1.95;;;19.60;45.00;19.70;100434.00;;;;4931360;28;88072;-75
2023/04/28 10:40:27;;;;;;;5.32;1.30;;;19.50;45.10;19.60;100436.00;;;;4915335;28;90095;-74
2023/04/28 10:42:55;;;;;;;1.70;1.52;;;19.50;45.30;19.50;100439.00;;;;4929156;28;87910;-77
2023/04/28 10:45:55;;;;;;;3.35;1.98;;;19.30;45.20;19.30;100437.00;;;;4928026;28;88048;-76
2023/04/28 10:48:46;;;;;;;2.05;1.88;;;19.20;45.80;19.30;100436.00;;;;4927521;28;88126;-76
2023/04/28 10:51:15;;;;;;;4.40;1.98;;;19.10;46.20;19.30;100426.00;;;;4927819;28;89288;-74
2023/04/28 10:53:47;;;;;;;2.90;1.77;;;19.00;46.10;19.20;100423.00;;;;4920625;28;103663;-76